sensor_id;sensor_type;location;lat;lon;timestamp;P1;durP1;ratioP1;P2;durP2;ratioP2
23360;SDS011;11852;50.082;18.554;2022-10-26T00:02:08;20.5;;;11.8;;
23360;SDS011;11852;50.082;18.554;2022-10-26T00:03:12;22.5;;;11.0;;
23360;SDS011;11852;50.082;18.554;2022-10-26T00:04:16;21.7;;;11.9;;
23360;SDS011;11852;50.082;18.554;2022-10-26T00:05:21;24.4;;;12.1;;
23360;SDS011;11852;50.082;18.554;2022-10-26T00:06:25;19.3;;;11.6;;
23360;SDS011;11852;50.082;18.554;2022-10-26T00:07:30;18.7;;;10.8;;
23360;SDS011;11852;50.082;18.554;2022-10-26T00:08:34;22.9;;;11.5;;
23360;SDS011;11852;50.082;18.554;2022-10-26T00:09:38;19.5;;;10.8;;
23360;SDS011;11852;50.082;18.554;2022-10-26T00:10:43;20.8;;;10.9;;
23360;SDS011;11852;50.082;18.554;2022-10-26T00:11:47;17.3;;;10.2;;
23360;SDS011;11852;50.082;18.554;2022-10-26T00:12:52;19.4;;;10.2;;
23360;SDS011;11852;50.082;18.554;2022-10-26T00:13:56;19.0;;;10.7;;
23360;SDS011;11852;50.082;18.554;2022-10-26T00:15:01;18.8;;;9.7;;
23360;SDS011;11852;50.082;18.554;2022-10-26T00:17:16;18.4;;;9.1;;
23360;SDS011;11852;50.082;18.554;2022-10-26T00:18:20;16.3;;;9.4;;
23360;SDS011;11852;50.082;18.554;2022-10-26T00:19:24;16.9;;;9.7;;
23360;SDS011;11852;50.082;18.554;2022-10-26T00:20:29;19.0;;;9.6;;
23360;SDS011;11852;50.082;18.554;2022-10-26T00:21:33;17.9;;;10.4;;
23360;SDS011;11852;50.082;18.554;2022-10-26T00:22:38;17.2;;;10.0;;
23360;SDS011;11852;50.082;18.554;2022-10-26T00:23:42;19.0;;;10.1;;
23360;SDS011;11852;50.082;18.554;2022-10-26T00:24:47;18.7;;;9.9;;
23360;SDS011;11852;50.082;18.554;2022-10-26T00:25:55;19.1;;;10.8;;
23360;SDS011;11852;50.082;18.554;2022-10-26T00:26:59;21.4;;;10.5;;
23360;SDS011;11852;50.082;18.554;2022-10-26T00:28:03;19.2;;;9.9;;
23360;SDS011;11852;50.082;18.554;2022-10-26T00:29:08;19.3;;;9.9;;
23360;SDS011;11852;50.082;18.554;2022-10-26T00:30:12;16.9;;;10.1;;
23360;SDS011;11852;50.082;18.554;2022-10-26T00:31:16;20.0;;;10.1;;
23360;SDS011;11852;50.082;18.554;2022-10-26T00:32:21;18.3;;;9.6;;
23360;SDS011;11852;50.082;18.554;2022-10-26T00:33:25;17.9;;;10.1;;
23360;SDS011;11852;50.082;18.554;2022-10-26T00:34:30;17.2;;;9.6;;
23360;SDS011;11852;50.082;18.554;2022-10-26T00:35:34;17.2;;;10.4;;
23360;SDS011;11852;50.082;18.554;2022-10-26T00:36:38;17.4;;;9.5;;
23360;SDS011;11852;50.082;18.554;2022-10-26T00:37:43;17.8;;;9.8;;
23360;SDS011;11852;50.082;18.554;2022-10-26T00:38:48;18.5;;;10.6;;
23360;SDS011;11852;50.082;18.554;2022-10-26T00:39:52;17.2;;;9.9;;
23360;SDS011;11852;50.082;18.554;2022-10-26T00:40:56;22.1;;;11.6;;
23360;SDS011;11852;50.082;18.554;2022-10-26T00:42:01;26.0;;;13.6;;
23360;SDS011;11852;50.082;18.554;2022-10-26T00:43:12;23.2;;;13.3;;
23360;SDS011;11852;50.082;18.554;2022-10-26T00:45:32;24.6;;;13.7;;
23360;SDS011;11852;50.082;18.554;2022-10-26T00:46:37;23.5;;;14.2;;
23360;SDS011;11852;50.082;18.554;2022-10-26T00:47:42;23.9;;;13.1;;
23360;SDS011;11852;50.082;18.554;2022-10-26T00:48:50;23.3;;;13.4;;
23360;SDS011;11852;50.082;18.554;2022-10-26T00:49:55;23.0;;;13.1;;
23360;SDS011;11852;50.082;18.554;2022-10-26T00:50:58;20.5;;;11.8;;
23360;SDS011;11852;50.082;18.554;2022-10-26T00:52:02;21.8;;;11.6;;
23360;SDS011;11852;50.082;18.554;2022-10-26T00:53:07;22.6;;;11.5;;
23360;SDS011;11852;50.082;18.554;2022-10-26T00:54:15;21.9;;;11.7;;
23360;SDS011;11852;50.082;18.554;2022-10-26T00:55:20;23.1;;;11.8;;
23360;SDS011;11852;50.082;18.554;2022-10-26T00:56:24;20.5;;;12.3;;
23360;SDS011;11852;50.082;18.554;2022-10-26T00:57:28;22.8;;;11.9;;
23360;SDS011;11852;50.082;18.554;2022-10-26T00:58:33;22.5;;;12.9;;
23360;SDS011;11852;50.082;18.554;2022-10-26T00:59:37;21.2;;;11.5;;
23360;SDS011;11852;50.082;18.554;2022-10-26T01:00:41;21.7;;;11.9;;
23360;SDS011;11852;50.082;18.554;2022-10-26T01:01:45;21.2;;;11.6;;
23360;SDS011;11852;50.082;18.554;2022-10-26T01:02:49;19.6;;;11.2;;
23360;SDS011;11852;50.082;18.554;2022-10-26T01:03:54;19.1;;;10.8;;
23360;SDS011;11852;50.082;18.554;2022-10-26T01:04:58;18.3;;;10.4;;
23360;SDS011;11852;50.082;18.554;2022-10-26T01:06:02;21.6;;;10.5;;
23360;SDS011;11852;50.082;18.554;2022-10-26T01:07:07;19.9;;;10.3;;
23360;SDS011;11852;50.082;18.554;2022-10-26T01:08:11;17.5;;;10.0;;
23360;SDS011;11852;50.082;18.554;2022-10-26T01:09:16;18.0;;;10.0;;
23360;SDS011;11852;50.082;18.554;2022-10-26T01:10:20;18.3;;;9.9;;
23360;SDS011;11852;50.082;18.554;2022-10-26T01:11:25;17.5;;;9.6;;
23360;SDS011;11852;50.082;18.554;2022-10-26T01:12:29;19.1;;;10.4;;
23360;SDS011;11852;50.082;18.554;2022-10-26T01:13:33;17.8;;;10.3;;
23360;SDS011;11852;50.082;18.554;2022-10-26T01:14:38;17.8;;;10.1;;
23360;SDS011;11852;50.082;18.554;2022-10-26T01:15:46;16.3;;;9.7;;
23360;SDS011;11852;50.082;18.554;2022-10-26T01:18:00;20.3;;;10.4;;
23360;SDS011;11852;50.082;18.554;2022-10-26T01:25:44;19.6;;;9.9;;
23360;SDS011;11852;50.082;18.554;2022-10-26T01:31:07;18.6;;;11.5;;
23360;SDS011;11852;50.082;18.554;2022-10-26T01:34:40;17.3;;;9.7;;
23360;SDS011;11852;50.082;18.554;2022-10-26T01:35:44;16.5;;;9.1;;
23360;SDS011;11852;50.082;18.554;2022-10-26T01:36:54;17.7;;;8.8;;
23360;SDS011;11852;50.082;18.554;2022-10-26T01:39:08;16.0;;;9.4;;
23360;SDS011;11852;50.082;18.554;2022-10-26T01:40:19;17.1;;;9.5;;
23360;SDS011;11852;50.082;18.554;2022-10-26T01:41:23;18.0;;;9.5;;
23360;SDS011;11852;50.082;18.554;2022-10-26T01:42:30;17.5;;;9.0;;
23360;SDS011;11852;50.082;18.554;2022-10-26T01:43:35;17.4;;;9.7;;
23360;SDS011;11852;50.082;18.554;2022-10-26T01:44:40;16.5;;;9.6;;
23360;SDS011;11852;50.082;18.554;2022-10-26T01:45:44;17.7;;;10.0;;
23360;SDS011;11852;50.082;18.554;2022-10-26T01:46:48;18.0;;;9.7;;
23360;SDS011;11852;50.082;18.554;2022-10-26T01:47:51;20.2;;;10.0;;
23360;SDS011;11852;50.082;18.554;2022-10-26T01:48:57;17.7;;;9.8;;
23360;SDS011;11852;50.082;18.554;2022-10-26T01:50:01;18.8;;;9.6;;
23360;SDS011;11852;50.082;18.554;2022-10-26T01:51:05;21.0;;;10.6;;
23360;SDS011;11852;50.082;18.554;2022-10-26T01:52:10;19.3;;;10.5;;
23360;SDS011;11852;50.082;18.554;2022-10-26T01:53:14;18.1;;;9.8;;
23360;SDS011;11852;50.082;18.554;2022-10-26T01:54:18;18.1;;;9.7;;
23360;SDS011;11852;50.082;18.554;2022-10-26T01:56:41;16.6;;;9.2;;
23360;SDS011;11852;50.082;18.554;2022-10-26T01:57:44;16.3;;;9.5;;
23360;SDS011;11852;50.082;18.554;2022-10-26T02:02:24;17.8;;;9.4;;
23360;SDS011;11852;50.082;18.554;2022-10-26T02:04:44;17.6;;;9.9;;
23360;SDS011;11852;50.082;18.554;2022-10-26T02:09:22;18.4;;;9.9;;
23360;SDS011;11852;50.082;18.554;2022-10-26T02:11:39;17.8;;;9.9;;
23360;SDS011;11852;50.082;18.554;2022-10-26T02:14:35;18.8;;;9.9;;
23360;SDS011;11852;50.082;18.554;2022-10-26T02:15:08;14.8;;;8.8;;
23360;SDS011;11852;50.082;18.554;2022-10-26T02:19:51;19.1;;;10.1;;
23360;SDS011;11852;50.082;18.554;2022-10-26T02:20:55;19.5;;;9.8;;
23360;SDS011;11852;50.082;18.554;2022-10-26T02:22:04;18.4;;;10.3;;
23360;SDS011;11852;50.082;18.554;2022-10-26T02:23:06;16.3;;;10.3;;
23360;SDS011;11852;50.082;18.554;2022-10-26T02:24:10;17.7;;;10.6;;
23360;SDS011;11852;50.082;18.554;2022-10-26T02:25:22;17.1;;;10.3;;
23360;SDS011;11852;50.082;18.554;2022-10-26T02:26:25;16.8;;;9.6;;
23360;SDS011;11852;50.082;18.554;2022-10-26T02:27:30;15.8;;;10.6;;
23360;SDS011;11852;50.082;18.554;2022-10-26T02:28:34;16.7;;;9.9;;
23360;SDS011;11852;50.082;18.554;2022-10-26T02:29:37;18.0;;;9.4;;
23360;SDS011;11852;50.082;18.554;2022-10-26T02:30:41;17.0;;;9.5;;
23360;SDS011;11852;50.082;18.554;2022-10-26T02:31:46;15.8;;;9.2;;
23360;SDS011;11852;50.082;18.554;2022-10-26T02:32:50;13.5;;;8.4;;
23360;SDS011;11852;50.082;18.554;2022-10-26T02:33:54;16.1;;;8.4;;
23360;SDS011;11852;50.082;18.554;2022-10-26T02:34:59;14.5;;;8.8;;
23360;SDS011;11852;50.082;18.554;2022-10-26T02:36:04;14.6;;;7.8;;
23360;SDS011;11852;50.082;18.554;2022-10-26T02:37:08;12.5;;;7.6;;
23360;SDS011;11852;50.082;18.554;2022-10-26T02:38:12;13.3;;;7.5;;
23360;SDS011;11852;50.082;18.554;2022-10-26T02:39:17;12.9;;;7.6;;
23360;SDS011;11852;50.082;18.554;2022-10-26T02:40:23;14.5;;;7.2;;
23360;SDS011;11852;50.082;18.554;2022-10-26T02:41:26;12.4;;;6.8;;
23360;SDS011;11852;50.082;18.554;2022-10-26T02:42:30;13.5;;;7.1;;
23360;SDS011;11852;50.082;18.554;2022-10-26T02:43:36;14.2;;;7.6;;
23360;SDS011;11852;50.082;18.554;2022-10-26T02:44:43;16.4;;;7.7;;
23360;SDS011;11852;50.082;18.554;2022-10-26T02:45:48;14.9;;;7.6;;
23360;SDS011;11852;50.082;18.554;2022-10-26T02:46:51;14.9;;;7.9;;
23360;SDS011;11852;50.082;18.554;2022-10-26T02:47:55;14.6;;;7.4;;
23360;SDS011;11852;50.082;18.554;2022-10-26T02:48:59;14.2;;;7.4;;
23360;SDS011;11852;50.082;18.554;2022-10-26T02:50:04;13.5;;;7.3;;
23360;SDS011;11852;50.082;18.554;2022-10-26T02:51:13;15.0;;;7.2;;
23360;SDS011;11852;50.082;18.554;2022-10-26T02:54:41;15.4;;;7.5;;
23360;SDS011;11852;50.082;18.554;2022-10-26T02:55:45;11.8;;;7.0;;
23360;SDS011;11852;50.082;18.554;2022-10-26T02:56:49;14.1;;;7.1;;
23360;SDS011;11852;50.082;18.554;2022-10-26T02:57:55;12.8;;;6.9;;
23360;SDS011;11852;50.082;18.554;2022-10-26T02:58:59;13.5;;;6.8;;
23360;SDS011;11852;50.082;18.554;2022-10-26T03:00:04;12.6;;;7.2;;
23360;SDS011;11852;50.082;18.554;2022-10-26T03:01:08;13.1;;;7.0;;
23360;SDS011;11852;50.082;18.554;2022-10-26T03:02:13;12.6;;;6.7;;
23360;SDS011;11852;50.082;18.554;2022-10-26T03:03:17;14.1;;;6.8;;
23360;SDS011;11852;50.082;18.554;2022-10-26T03:04:26;14.3;;;7.4;;
23360;SDS011;11852;50.082;18.554;2022-10-26T03:05:27;16.1;;;7.4;;
23360;SDS011;11852;50.082;18.554;2022-10-26T03:06:30;12.6;;;7.4;;
23360;SDS011;11852;50.082;18.554;2022-10-26T03:07:34;14.8;;;7.6;;
23360;SDS011;11852;50.082;18.554;2022-10-26T03:08:38;15.2;;;7.9;;
23360;SDS011;11852;50.082;18.554;2022-10-26T03:09:43;12.9;;;7.6;;
23360;SDS011;11852;50.082;18.554;2022-10-26T03:10:47;15.6;;;7.7;;
23360;SDS011;11852;50.082;18.554;2022-10-26T03:11:51;13.8;;;7.3;;
23360;SDS011;11852;50.082;18.554;2022-10-26T03:12:55;14.1;;;7.7;;
23360;SDS011;11852;50.082;18.554;2022-10-26T03:14:00;13.7;;;7.6;;
23360;SDS011;11852;50.082;18.554;2022-10-26T03:15:05;14.7;;;7.7;;
23360;SDS011;11852;50.082;18.554;2022-10-26T03:16:09;15.6;;;7.7;;
23360;SDS011;11852;50.082;18.554;2022-10-26T03:17:14;13.8;;;8.5;;
23360;SDS011;11852;50.082;18.554;2022-10-26T03:18:18;17.7;;;8.5;;
23360;SDS011;11852;50.082;18.554;2022-10-26T03:19:22;15.5;;;8.7;;
23360;SDS011;11852;50.082;18.554;2022-10-26T03:20:27;13.3;;;8.0;;
23360;SDS011;11852;50.082;18.554;2022-10-26T03:21:31;14.8;;;8.4;;
23360;SDS011;11852;50.082;18.554;2022-10-26T03:22:35;13.5;;;7.6;;
23360;SDS011;11852;50.082;18.554;2022-10-26T03:23:40;15.5;;;8.0;;
23360;SDS011;11852;50.082;18.554;2022-10-26T03:24:45;14.9;;;7.2;;
23360;SDS011;11852;50.082;18.554;2022-10-26T03:25:49;13.6;;;7.5;;
23360;SDS011;11852;50.082;18.554;2022-10-26T03:26:54;16.1;;;7.5;;
23360;SDS011;11852;50.082;18.554;2022-10-26T03:27:58;13.6;;;7.3;;
23360;SDS011;11852;50.082;18.554;2022-10-26T03:29:02;18.5;;;7.5;;
23360;SDS011;11852;50.082;18.554;2022-10-26T03:30:07;15.1;;;7.9;;
23360;SDS011;11852;50.082;18.554;2022-10-26T03:31:12;14.2;;;7.9;;
23360;SDS011;11852;50.082;18.554;2022-10-26T03:32:16;14.6;;;8.1;;
23360;SDS011;11852;50.082;18.554;2022-10-26T03:33:21;14.2;;;7.7;;
23360;SDS011;11852;50.082;18.554;2022-10-26T03:34:26;14.7;;;8.3;;
23360;SDS011;11852;50.082;18.554;2022-10-26T03:35:30;17.9;;;8.5;;
23360;SDS011;11852;50.082;18.554;2022-10-26T03:36:35;16.5;;;8.1;;
23360;SDS011;11852;50.082;18.554;2022-10-26T03:37:39;16.3;;;8.3;;
23360;SDS011;11852;50.082;18.554;2022-10-26T03:38:44;15.2;;;7.8;;
23360;SDS011;11852;50.082;18.554;2022-10-26T03:39:48;14.3;;;7.6;;
23360;SDS011;11852;50.082;18.554;2022-10-26T03:40:53;15.5;;;8.1;;
23360;SDS011;11852;50.082;18.554;2022-10-26T03:41:58;13.5;;;7.4;;
23360;SDS011;11852;50.082;18.554;2022-10-26T03:43:02;13.6;;;8.0;;
23360;SDS011;11852;50.082;18.554;2022-10-26T03:44:06;14.0;;;7.4;;
23360;SDS011;11852;50.082;18.554;2022-10-26T03:45:10;15.5;;;8.2;;
23360;SDS011;11852;50.082;18.554;2022-10-26T03:46:15;13.4;;;8.0;;
23360;SDS011;11852;50.082;18.554;2022-10-26T03:47:19;15.8;;;7.9;;
23360;SDS011;11852;50.082;18.554;2022-10-26T03:48:24;16.3;;;7.9;;
23360;SDS011;11852;50.082;18.554;2022-10-26T03:49:28;13.2;;;7.8;;
23360;SDS011;11852;50.082;18.554;2022-10-26T03:50:33;15.2;;;7.4;;
23360;SDS011;11852;50.082;18.554;2022-10-26T03:51:37;13.6;;;7.6;;
23360;SDS011;11852;50.082;18.554;2022-10-26T03:52:42;14.0;;;7.2;;
23360;SDS011;11852;50.082;18.554;2022-10-26T03:53:46;13.5;;;7.8;;
23360;SDS011;11852;50.082;18.554;2022-10-26T03:54:51;15.6;;;7.7;;
23360;SDS011;11852;50.082;18.554;2022-10-26T03:55:56;14.1;;;7.4;;
23360;SDS011;11852;50.082;18.554;2022-10-26T03:57:00;15.6;;;7.8;;
23360;SDS011;11852;50.082;18.554;2022-10-26T03:58:05;13.0;;;7.7;;
23360;SDS011;11852;50.082;18.554;2022-10-26T03:59:10;14.6;;;7.6;;
23360;SDS011;11852;50.082;18.554;2022-10-26T04:00:15;14.9;;;8.2;;
23360;SDS011;11852;50.082;18.554;2022-10-26T04:01:19;14.7;;;7.9;;
23360;SDS011;11852;50.082;18.554;2022-10-26T04:02:23;14.6;;;8.4;;
23360;SDS011;11852;50.082;18.554;2022-10-26T04:03:28;15.4;;;7.9;;
23360;SDS011;11852;50.082;18.554;2022-10-26T04:04:33;15.6;;;8.3;;
23360;SDS011;11852;50.082;18.554;2022-10-26T04:05:37;15.9;;;8.5;;
23360;SDS011;11852;50.082;18.554;2022-10-26T04:06:42;15.0;;;8.4;;
23360;SDS011;11852;50.082;18.554;2022-10-26T04:08:58;18.9;;;8.6;;
23360;SDS011;11852;50.082;18.554;2022-10-26T04:10:03;16.2;;;8.3;;
23360;SDS011;11852;50.082;18.554;2022-10-26T04:11:07;14.8;;;7.7;;
23360;SDS011;11852;50.082;18.554;2022-10-26T04:12:12;15.1;;;8.3;;
23360;SDS011;11852;50.082;18.554;2022-10-26T04:13:16;14.7;;;7.8;;
23360;SDS011;11852;50.082;18.554;2022-10-26T04:14:21;14.2;;;7.3;;
23360;SDS011;11852;50.082;18.554;2022-10-26T04:15:25;15.6;;;7.7;;
23360;SDS011;11852;50.082;18.554;2022-10-26T04:16:30;12.6;;;7.8;;
23360;SDS011;11852;50.082;18.554;2022-10-26T04:17:34;15.4;;;7.8;;
23360;SDS011;11852;50.082;18.554;2022-10-26T04:18:39;13.6;;;7.2;;
23360;SDS011;11852;50.082;18.554;2022-10-26T04:19:44;13.4;;;7.6;;
23360;SDS011;11852;50.082;18.554;2022-10-26T04:20:48;16.1;;;7.4;;
23360;SDS011;11852;50.082;18.554;2022-10-26T04:21:52;13.1;;;7.4;;
23360;SDS011;11852;50.082;18.554;2022-10-26T04:23:06;14.9;;;8.1;;
23360;SDS011;11852;50.082;18.554;2022-10-26T04:24:01;14.1;;;8.1;;
23360;SDS011;11852;50.082;18.554;2022-10-26T04:25:06;12.6;;;7.7;;
23360;SDS011;11852;50.082;18.554;2022-10-26T04:26:11;12.6;;;6.9;;
23360;SDS011;11852;50.082;18.554;2022-10-26T04:27:15;18.1;;;8.3;;
23360;SDS011;11852;50.082;18.554;2022-10-26T04:28:20;16.3;;;7.3;;
23360;SDS011;11852;50.082;18.554;2022-10-26T04:29:24;13.8;;;7.2;;
23360;SDS011;11852;50.082;18.554;2022-10-26T04:30:29;13.1;;;7.3;;
23360;SDS011;11852;50.082;18.554;2022-10-26T04:31:33;13.2;;;7.2;;
23360;SDS011;11852;50.082;18.554;2022-10-26T04:32:38;13.7;;;8.0;;
23360;SDS011;11852;50.082;18.554;2022-10-26T04:33:42;14.4;;;7.9;;
23360;SDS011;11852;50.082;18.554;2022-10-26T04:34:47;15.0;;;7.7;;
23360;SDS011;11852;50.082;18.554;2022-10-26T04:35:51;15.4;;;7.4;;
23360;SDS011;11852;50.082;18.554;2022-10-26T04:36:56;13.1;;;7.8;;
23360;SDS011;11852;50.082;18.554;2022-10-26T04:38:00;15.0;;;8.2;;
23360;SDS011;11852;50.082;18.554;2022-10-26T04:39:04;15.8;;;7.9;;
23360;SDS011;11852;50.082;18.554;2022-10-26T04:40:08;13.1;;;7.3;;
23360;SDS011;11852;50.082;18.554;2022-10-26T04:41:13;14.9;;;8.2;;
23360;SDS011;11852;50.082;18.554;2022-10-26T04:42:17;13.2;;;7.4;;
23360;SDS011;11852;50.082;18.554;2022-10-26T04:43:22;13.9;;;7.6;;
23360;SDS011;11852;50.082;18.554;2022-10-26T04:44:26;14.9;;;7.7;;
23360;SDS011;11852;50.082;18.554;2022-10-26T04:45:31;16.8;;;7.6;;
23360;SDS011;11852;50.082;18.554;2022-10-26T04:46:35;13.7;;;7.5;;
23360;SDS011;11852;50.082;18.554;2022-10-26T04:47:40;13.9;;;7.4;;
23360;SDS011;11852;50.082;18.554;2022-10-26T04:48:44;14.1;;;7.5;;
23360;SDS011;11852;50.082;18.554;2022-10-26T04:49:48;13.8;;;7.4;;
23360;SDS011;11852;50.082;18.554;2022-10-26T04:50:52;14.6;;;7.8;;
23360;SDS011;11852;50.082;18.554;2022-10-26T04:51:57;13.4;;;6.8;;
23360;SDS011;11852;50.082;18.554;2022-10-26T04:53:02;15.3;;;7.3;;
23360;SDS011;11852;50.082;18.554;2022-10-26T04:54:06;14.3;;;7.1;;
23360;SDS011;11852;50.082;18.554;2022-10-26T04:55:10;13.2;;;7.6;;
23360;SDS011;11852;50.082;18.554;2022-10-26T04:56:15;12.9;;;7.3;;
23360;SDS011;11852;50.082;18.554;2022-10-26T04:57:19;12.7;;;6.7;;
23360;SDS011;11852;50.082;18.554;2022-10-26T04:58:24;15.0;;;6.9;;
23360;SDS011;11852;50.082;18.554;2022-10-26T04:59:28;13.4;;;7.4;;
23360;SDS011;11852;50.082;18.554;2022-10-26T05:00:33;14.4;;;7.3;;
23360;SDS011;11852;50.082;18.554;2022-10-26T05:01:37;13.1;;;7.6;;
23360;SDS011;11852;50.082;18.554;2022-10-26T05:02:41;13.9;;;7.2;;
23360;SDS011;11852;50.082;18.554;2022-10-26T05:04:55;12.5;;;6.8;;
23360;SDS011;11852;50.082;18.554;2022-10-26T05:06:00;15.1;;;8.1;;
23360;SDS011;11852;50.082;18.554;2022-10-26T05:07:04;15.3;;;8.4;;
23360;SDS011;11852;50.082;18.554;2022-10-26T05:08:09;15.1;;;7.9;;
23360;SDS011;11852;50.082;18.554;2022-10-26T05:09:13;13.9;;;8.3;;
23360;SDS011;11852;50.082;18.554;2022-10-26T05:10:18;15.0;;;9.4;;
23360;SDS011;11852;50.082;18.554;2022-10-26T05:11:22;17.0;;;9.2;;
23360;SDS011;11852;50.082;18.554;2022-10-26T05:12:26;14.4;;;8.9;;
23360;SDS011;11852;50.082;18.554;2022-10-26T05:13:30;16.0;;;8.5;;
23360;SDS011;11852;50.082;18.554;2022-10-26T05:14:35;16.3;;;8.5;;
23360;SDS011;11852;50.082;18.554;2022-10-26T05:15:39;16.4;;;9.3;;
23360;SDS011;11852;50.082;18.554;2022-10-26T05:16:44;15.9;;;8.4;;
23360;SDS011;11852;50.082;18.554;2022-10-26T05:18:58;13.6;;;7.8;;
23360;SDS011;11852;50.082;18.554;2022-10-26T05:20:02;15.6;;;9.2;;
23360;SDS011;11852;50.082;18.554;2022-10-26T05:21:07;13.7;;;8.3;;
23360;SDS011;11852;50.082;18.554;2022-10-26T05:22:11;18.9;;;8.0;;
23360;SDS011;11852;50.082;18.554;2022-10-26T05:23:16;13.1;;;8.4;;
23360;SDS011;11852;50.082;18.554;2022-10-26T05:24:20;17.1;;;8.5;;
23360;SDS011;11852;50.082;18.554;2022-10-26T05:25:24;12.5;;;8.2;;
23360;SDS011;11852;50.082;18.554;2022-10-26T05:26:29;14.6;;;8.3;;
23360;SDS011;11852;50.082;18.554;2022-10-26T05:27:33;15.5;;;8.7;;
23360;SDS011;11852;50.082;18.554;2022-10-26T05:28:38;12.7;;;8.0;;
23360;SDS011;11852;50.082;18.554;2022-10-26T05:29:42;14.2;;;8.4;;
23360;SDS011;11852;50.082;18.554;2022-10-26T05:30:46;14.1;;;8.3;;
23360;SDS011;11852;50.082;18.554;2022-10-26T05:31:51;13.8;;;8.3;;
23360;SDS011;11852;50.082;18.554;2022-10-26T05:32:56;14.4;;;8.5;;
23360;SDS011;11852;50.082;18.554;2022-10-26T05:34:00;15.3;;;7.9;;
23360;SDS011;11852;50.082;18.554;2022-10-26T05:35:05;16.5;;;8.5;;
23360;SDS011;11852;50.082;18.554;2022-10-26T05:36:10;13.4;;;7.6;;
23360;SDS011;11852;50.082;18.554;2022-10-26T05:37:15;13.4;;;7.7;;
23360;SDS011;11852;50.082;18.554;2022-10-26T05:38:19;14.5;;;7.7;;
23360;SDS011;11852;50.082;18.554;2022-10-26T05:39:24;14.4;;;8.0;;
23360;SDS011;11852;50.082;18.554;2022-10-26T05:40:28;15.4;;;8.5;;
23360;SDS011;11852;50.082;18.554;2022-10-26T05:41:33;13.6;;;8.3;;
23360;SDS011;11852;50.082;18.554;2022-10-26T05:42:37;17.8;;;8.5;;
23360;SDS011;11852;50.082;18.554;2022-10-26T05:43:42;14.6;;;8.9;;
23360;SDS011;11852;50.082;18.554;2022-10-26T05:44:47;17.0;;;9.0;;
23360;SDS011;11852;50.082;18.554;2022-10-26T05:45:52;15.5;;;8.9;;
23360;SDS011;11852;50.082;18.554;2022-10-26T05:46:56;14.8;;;8.6;;
23360;SDS011;11852;50.082;18.554;2022-10-26T05:48:01;17.3;;;8.8;;
23360;SDS011;11852;50.082;18.554;2022-10-26T05:49:05;14.6;;;8.5;;
23360;SDS011;11852;50.082;18.554;2022-10-26T05:50:10;15.3;;;8.9;;
23360;SDS011;11852;50.082;18.554;2022-10-26T05:51:14;16.0;;;8.8;;
23360;SDS011;11852;50.082;18.554;2022-10-26T05:52:19;15.6;;;9.5;;
23360;SDS011;11852;50.082;18.554;2022-10-26T05:53:26;19.9;;;10.0;;
23360;SDS011;11852;50.082;18.554;2022-10-26T05:54:30;18.2;;;11.0;;
23360;SDS011;11852;50.082;18.554;2022-10-26T05:55:35;20.9;;;11.6;;
23360;SDS011;11852;50.082;18.554;2022-10-26T05:56:39;20.8;;;12.4;;
23360;SDS011;11852;50.082;18.554;2022-10-26T05:57:44;21.2;;;12.5;;
23360;SDS011;11852;50.082;18.554;2022-10-26T05:58:48;19.9;;;11.7;;
23360;SDS011;11852;50.082;18.554;2022-10-26T05:59:53;20.0;;;11.4;;
23360;SDS011;11852;50.082;18.554;2022-10-26T06:04:38;17.3;;;11.1;;
23360;SDS011;11852;50.082;18.554;2022-10-26T06:06:56;15.0;;;9.5;;
23360;SDS011;11852;50.082;18.554;2022-10-26T06:08:01;14.9;;;8.8;;
23360;SDS011;11852;50.082;18.554;2022-10-26T06:09:07;15.5;;;9.1;;
23360;SDS011;11852;50.082;18.554;2022-10-26T06:10:10;14.6;;;9.2;;
23360;SDS011;11852;50.082;18.554;2022-10-26T06:11:14;16.6;;;9.5;;
23360;SDS011;11852;50.082;18.554;2022-10-26T06:12:19;18.1;;;9.0;;
23360;SDS011;11852;50.082;18.554;2022-10-26T06:13:24;17.5;;;8.7;;
23360;SDS011;11852;50.082;18.554;2022-10-26T06:14:28;17.0;;;9.1;;
23360;SDS011;11852;50.082;18.554;2022-10-26T06:15:35;18.7;;;8.9;;
23360;SDS011;11852;50.082;18.554;2022-10-26T06:19:05;15.8;;;8.8;;
23360;SDS011;11852;50.082;18.554;2022-10-26T06:23:51;18.6;;;7.9;;
23360;SDS011;11852;50.082;18.554;2022-10-26T06:30:54;16.8;;;8.0;;
23360;SDS011;11852;50.082;18.554;2022-10-26T06:31:58;16.2;;;7.9;;
23360;SDS011;11852;50.082;18.554;2022-10-26T06:33:03;16.1;;;8.5;;
23360;SDS011;11852;50.082;18.554;2022-10-26T06:34:07;16.2;;;8.3;;
23360;SDS011;11852;50.082;18.554;2022-10-26T06:36:25;18.2;;;7.9;;
23360;SDS011;11852;50.082;18.554;2022-10-26T06:37:29;14.1;;;7.3;;
23360;SDS011;11852;50.082;18.554;2022-10-26T06:38:34;15.4;;;8.0;;
23360;SDS011;11852;50.082;18.554;2022-10-26T06:39:40;14.2;;;7.6;;
23360;SDS011;11852;50.082;18.554;2022-10-26T06:40:44;17.3;;;7.9;;
23360;SDS011;11852;50.082;18.554;2022-10-26T06:41:48;19.3;;;8.5;;
23360;SDS011;11852;50.082;18.554;2022-10-26T06:42:52;15.7;;;7.9;;
23360;SDS011;11852;50.082;18.554;2022-10-26T06:43:57;17.2;;;8.1;;
23360;SDS011;11852;50.082;18.554;2022-10-26T06:45:01;17.2;;;7.7;;
23360;SDS011;11852;50.082;18.554;2022-10-26T06:48:26;15.8;;;7.1;;
23360;SDS011;11852;50.082;18.554;2022-10-26T06:50:42;14.5;;;6.9;;
23360;SDS011;11852;50.082;18.554;2022-10-26T06:51:49;14.2;;;6.9;;
23360;SDS011;11852;50.082;18.554;2022-10-26T06:54:07;13.7;;;7.2;;
23360;SDS011;11852;50.082;18.554;2022-10-26T06:55:13;19.2;;;8.4;;
23360;SDS011;11852;50.082;18.554;2022-10-26T06:56:17;15.1;;;7.7;;
23360;SDS011;11852;50.082;18.554;2022-10-26T06:57:22;14.6;;;7.1;;
23360;SDS011;11852;50.082;18.554;2022-10-26T06:58:27;15.6;;;7.5;;
23360;SDS011;11852;50.082;18.554;2022-10-26T06:59:42;16.0;;;7.1;;
23360;SDS011;11852;50.082;18.554;2022-10-26T07:00:40;15.8;;;7.5;;
23360;SDS011;11852;50.082;18.554;2022-10-26T07:01:45;13.4;;;6.8;;
23360;SDS011;11852;50.082;18.554;2022-10-26T07:02:49;14.0;;;6.7;;
23360;SDS011;11852;50.082;18.554;2022-10-26T07:03:54;15.1;;;6.6;;
23360;SDS011;11852;50.082;18.554;2022-10-26T07:04:58;14.5;;;6.6;;
23360;SDS011;11852;50.082;18.554;2022-10-26T07:06:02;13.4;;;6.3;;
23360;SDS011;11852;50.082;18.554;2022-10-26T07:07:17;13.5;;;6.0;;
23360;SDS011;11852;50.082;18.554;2022-10-26T07:08:17;15.0;;;5.7;;
23360;SDS011;11852;50.082;18.554;2022-10-26T07:09:24;11.9;;;5.8;;
23360;SDS011;11852;50.082;18.554;2022-10-26T07:10:28;9.9;;;4.8;;
23360;SDS011;11852;50.082;18.554;2022-10-26T07:11:33;11.6;;;4.8;;
23360;SDS011;11852;50.082;18.554;2022-10-26T07:12:38;10.8;;;5.4;;
23360;SDS011;11852;50.082;18.554;2022-10-26T07:13:42;13.0;;;5.2;;
23360;SDS011;11852;50.082;18.554;2022-10-26T07:14:47;10.9;;;4.6;;
23360;SDS011;11852;50.082;18.554;2022-10-26T07:15:51;9.4;;;4.6;;
23360;SDS011;11852;50.082;18.554;2022-10-26T07:16:56;10.1;;;5.0;;
23360;SDS011;11852;50.082;18.554;2022-10-26T07:18:00;10.6;;;4.7;;
23360;SDS011;11852;50.082;18.554;2022-10-26T07:19:04;10.3;;;4.6;;
23360;SDS011;11852;50.082;18.554;2022-10-26T07:20:09;8.7;;;4.5;;
23360;SDS011;11852;50.082;18.554;2022-10-26T07:21:13;9.9;;;4.7;;
23360;SDS011;11852;50.082;18.554;2022-10-26T07:22:18;14.9;;;4.8;;
23360;SDS011;11852;50.082;18.554;2022-10-26T07:23:23;11.7;;;5.2;;
23360;SDS011;11852;50.082;18.554;2022-10-26T07:24:27;10.9;;;4.8;;
23360;SDS011;11852;50.082;18.554;2022-10-26T07:25:32;10.5;;;5.4;;
23360;SDS011;11852;50.082;18.554;2022-10-26T07:26:35;11.8;;;5.3;;
23360;SDS011;11852;50.082;18.554;2022-10-26T07:27:40;10.9;;;5.2;;
23360;SDS011;11852;50.082;18.554;2022-10-26T07:28:46;12.7;;;5.6;;
23360;SDS011;11852;50.082;18.554;2022-10-26T07:29:48;11.8;;;5.4;;
23360;SDS011;11852;50.082;18.554;2022-10-26T07:30:53;12.0;;;5.7;;
23360;SDS011;11852;50.082;18.554;2022-10-26T07:31:58;11.9;;;5.5;;
23360;SDS011;11852;50.082;18.554;2022-10-26T07:33:03;12.1;;;5.4;;